sensor_id;sensor_type;location;lat;lon;timestamp;temperature;humidity
61641;HTU21D;62201;49.966;8.342;2023-04-15T00:00:53;6.44;78.37
61641;HTU21D;62201;49.966;8.342;2023-04-15T00:03:19;6.44;78.77
61641;HTU21D;62201;49.966;8.342;2023-04-15T00:05:44;6.43;79.11
61641;HTU21D;62201;49.966;8.342;2023-04-15T00:08:10;6.43;79.29
61641;HTU21D;62201;49.966;8.342;2023-04-15T00:10:35;6.41;79.40
61641;HTU21D;62201;49.966;8.342;2023-04-15T00:13:01;6.42;79.81
61641;HTU21D;62201;49.966;8.342;2023-04-15T00:15:27;6.42;80.11
61641;HTU21D;62201;49.966;8.342;2023-04-15T00:17:52;6.39;80.45
61641;HTU21D;62201;49.966;8.342;2023-04-15T00:20:18;6.38;81.59
61641;HTU21D;62201;49.966;8.342;2023-04-15T00:22:43;6.36;81.07
61641;HTU21D;62201;49.966;8.342;2023-04-15T00:25:08;6.34;82.30
61641;HTU21D;62201;49.966;8.342;2023-04-15T00:27:34;6.33;81.92
61641;HTU21D;62201;49.966;8.342;2023-04-15T00:29:59;6.28;82.71
61641;HTU21D;62201;49.966;8.342;2023-04-15T00:32:25;6.27;82.84
61641;HTU21D;62201;49.966;8.342;2023-04-15T00:34:50;6.25;83.37
61641;HTU21D;62201;49.966;8.342;2023-04-15T00:37:15;6.21;83.59
61641;HTU21D;62201;49.966;8.342;2023-04-15T00:39:41;6.19;84.84
61641;HTU21D;62201;49.966;8.342;2023-04-15T00:42:06;6.15;84.19
61641;HTU21D;62201;49.966;8.342;2023-04-15T00:44:32;6.12;84.30
61641;HTU21D;62201;49.966;8.342;2023-04-15T00:46:59;6.09;85.15
61641;HTU21D;62201;49.966;8.342;2023-04-15T00:49:25;6.02;85.02
61641;HTU21D;62201;49.966;8.342;2023-04-15T00:51:52;6.01;85.80
61641;HTU21D;62201;49.966;8.342;2023-04-15T00:54:17;6.00;85.94
61641;HTU21D;62201;49.966;8.342;2023-04-15T00:56:42;5.98;85.74
61641;HTU21D;62201;49.966;8.342;2023-04-15T00:59:08;5.94;85.93
61641;HTU21D;62201;49.966;8.342;2023-04-15T01:01:35;5.91;86.02
61641;HTU21D;62201;49.966;8.342;2023-04-15T01:04:00;5.89;86.37
61641;HTU21D;62201;49.966;8.342;2023-04-15T01:06:26;5.83;86.41
61641;HTU21D;62201;49.966;8.342;2023-04-15T01:08:53;5.82;86.65
61641;HTU21D;62201;49.966;8.342;2023-04-15T01:11:18;5.82;87.25
61641;HTU21D;62201;49.966;8.342;2023-04-15T01:13:45;5.80;87.72
61641;HTU21D;62201;49.966;8.342;2023-04-15T01:16:12;5.78;87.89
61641;HTU21D;62201;49.966;8.342;2023-04-15T01:18:38;5.77;88.49
61641;HTU21D;62201;49.966;8.342;2023-04-15T01:21:05;5.75;88.67
61641;HTU21D;62201;49.966;8.342;2023-04-15T01:23:31;5.75;89.44
61641;HTU21D;62201;49.966;8.342;2023-04-15T01:25:58;5.71;89.57
61641;HTU21D;62201;49.966;8.342;2023-04-15T01:28:23;5.69;89.68
61641;HTU21D;62201;49.966;8.342;2023-04-15T01:30:49;5.70;91.13
61641;HTU21D;62201;49.966;8.342;2023-04-15T01:33:15;5.70;90.61
61641;HTU21D;62201;49.966;8.342;2023-04-15T01:35:40;5.69;91.24
61641;HTU21D;62201;49.966;8.342;2023-04-15T01:38:09;5.69;90.92
61641;HTU21D;62201;49.966;8.342;2023-04-15T01:40:35;5.67;90.73
61641;HTU21D;62201;49.966;8.342;2023-04-15T01:43:01;5.64;90.24
61641;HTU21D;62201;49.966;8.342;2023-04-15T01:45:28;5.61;90.83
61641;HTU21D;62201;49.966;8.342;2023-04-15T01:47:53;5.55;90.86
61641;HTU21D;62201;49.966;8.342;2023-04-15T01:50:19;5.51;90.98
61641;HTU21D;62201;49.966;8.342;2023-04-15T01:52:45;5.50;92.07
61641;HTU21D;62201;49.966;8.342;2023-04-15T01:55:11;5.45;91.31
61641;HTU21D;62201;49.966;8.342;2023-04-15T01:57:36;5.40;91.79
61641;HTU21D;62201;49.966;8.342;2023-04-15T02:00:02;5.36;92.89
61641;HTU21D;62201;49.966;8.342;2023-04-15T02:02:27;5.35;94.01
61641;HTU21D;62201;49.966;8.342;2023-04-15T02:04:53;5.33;93.49
61641;HTU21D;62201;49.966;8.342;2023-04-15T02:07:18;5.26;93.08
61641;HTU21D;62201;49.966;8.342;2023-04-15T02:09:44;5.26;93.60
61641;HTU21D;62201;49.966;8.342;2023-04-15T02:12:10;5.23;94.11
61641;HTU21D;62201;49.966;8.342;2023-04-15T02:14:35;5.25;94.28
61641;HTU21D;62201;49.966;8.342;2023-04-15T02:17:01;5.22;94.48
61641;HTU21D;62201;49.966;8.342;2023-04-15T02:19:32;5.18;94.81
61641;HTU21D;62201;49.966;8.342;2023-04-15T02:21:57;5.16;94.49
61641;HTU21D;62201;49.966;8.342;2023-04-15T02:24:22;5.13;95.53
61641;HTU21D;62201;49.966;8.342;2023-04-15T02:26:48;5.13;96.43
61641;HTU21D;62201;49.966;8.342;2023-04-15T02:29:13;5.12;96.10
61641;HTU21D;62201;49.966;8.342;2023-04-15T02:31:38;5.13;96.78
61641;HTU21D;62201;49.966;8.342;2023-04-15T02:34:06;5.13;97.07
61641;HTU21D;62201;49.966;8.342;2023-04-15T02:36:32;5.13;97.88
61641;HTU21D;62201;49.966;8.342;2023-04-15T02:38:58;5.11;96.97
61641;HTU21D;62201;49.966;8.342;2023-04-15T02:41:24;5.08;97.50
61641;HTU21D;62201;49.966;8.342;2023-04-15T02:43:51;5.06;97.70
61641;HTU21D;62201;49.966;8.342;2023-04-15T02:46:17;5.05;98.67
61641;HTU21D;62201;49.966;8.342;2023-04-15T02:48:42;5.04;99.23
61641;HTU21D;62201;49.966;8.342;2023-04-15T02:51:12;5.03;99.13
61641;HTU21D;62201;49.966;8.342;2023-04-15T02:53:38;5.01;100.03
61641;HTU21D;62201;49.966;8.342;2023-04-15T02:56:04;5.04;100.23
61641;HTU21D;62201;49.966;8.342;2023-04-15T02:58:30;5.05;99.20
61641;HTU21D;62201;49.966;8.342;2023-04-15T03:00:55;5.04;98.43
61641;HTU21D;62201;49.966;8.342;2023-04-15T03:03:21;5.01;99.19
61641;HTU21D;62201;49.966;8.342;2023-04-15T03:05:47;5.01;99.42
61641;HTU21D;62201;49.966;8.342;2023-04-15T03:08:12;4.97;99.19
61641;HTU21D;62201;49.966;8.342;2023-04-15T03:10:39;4.94;99.45
61641;HTU21D;62201;49.966;8.342;2023-04-15T03:13:04;4.95;99.70
61641;HTU21D;62201;49.966;8.342;2023-04-15T03:15:31;4.92;100.77
61641;HTU21D;62201;49.966;8.342;2023-04-15T03:17:57;4.91;101.23
61641;HTU21D;62201;49.966;8.342;2023-04-15T03:20:22;4.90;101.60
61641;HTU21D;62201;49.966;8.342;2023-04-15T03:22:48;4.88;100.80
61641;HTU21D;62201;49.966;8.342;2023-04-15T03:25:13;4.87;100.99
61641;HTU21D;62201;49.966;8.342;2023-04-15T03:27:38;4.86;101.53
61641;HTU21D;62201;49.966;8.342;2023-04-15T03:30:05;4.82;102.47
61641;HTU21D;62201;49.966;8.342;2023-04-15T03:32:30;4.81;102.30
61641;HTU21D;62201;49.966;8.342;2023-04-15T03:34:56;4.78;102.84
61641;HTU21D;62201;49.966;8.342;2023-04-15T03:37:21;4.75;102.12
61641;HTU21D;62201;49.966;8.342;2023-04-15T03:39:47;4.74;102.97
61641;HTU21D;62201;49.966;8.342;2023-04-15T03:42:12;4.73;103.43
61641;HTU21D;62201;49.966;8.342;2023-04-15T03:44:37;4.67;103.12
61641;HTU21D;62201;49.966;8.342;2023-04-15T03:47:03;4.65;104.04
61641;HTU21D;62201;49.966;8.342;2023-04-15T03:49:28;4.62;104.33
61641;HTU21D;62201;49.966;8.342;2023-04-15T03:51:54;4.63;104.96
61641;HTU21D;62201;49.966;8.342;2023-04-15T03:54:19;4.61;105.41
61641;HTU21D;62201;49.966;8.342;2023-04-15T03:56:44;4.60;105.78
61641;HTU21D;62201;49.966;8.342;2023-04-15T03:59:10;4.59;104.64
61641;HTU21D;62201;49.966;8.342;2023-04-15T04:01:35;4.52;104.38
61641;HTU21D;62201;49.966;8.342;2023-04-15T04:04:00;4.53;106.11
61641;HTU21D;62201;49.966;8.342;2023-04-15T04:06:26;4.56;107.76
61641;HTU21D;62201;49.966;8.342;2023-04-15T04:08:51;4.56;106.07
61641;HTU21D;62201;49.966;8.342;2023-04-15T04:11:16;4.54;106.18
61641;HTU21D;62201;49.966;8.342;2023-04-15T04:13:42;4.54;107.11
61641;HTU21D;62201;49.966;8.342;2023-04-15T04:16:07;4.52;106.75
61641;HTU21D;62201;49.966;8.342;2023-04-15T04:18:33;4.53;107.12
61641;HTU21D;62201;49.966;8.342;2023-04-15T04:20:59;4.52;107.03
61641;HTU21D;62201;49.966;8.342;2023-04-15T04:23:24;4.51;108.50
61641;HTU21D;62201;49.966;8.342;2023-04-15T04:25:50;4.50;107.88
61641;HTU21D;62201;49.966;8.342;2023-04-15T04:28:16;4.47;107.52
61641;HTU21D;62201;49.966;8.342;2023-04-15T04:30:42;4.50;107.53
61641;HTU21D;62201;49.966;8.342;2023-04-15T04:33:07;4.50;108.46
61641;HTU21D;62201;49.966;8.342;2023-04-15T04:35:32;4.53;108.07
61641;HTU21D;62201;49.966;8.342;2023-04-15T04:37:59;4.52;107.31
61641;HTU21D;62201;49.966;8.342;2023-04-15T04:40:25;4.51;107.04
61641;HTU21D;62201;49.966;8.342;2023-04-15T04:42:52;4.56;107.46
61641;HTU21D;62201;49.966;8.342;2023-04-15T04:45:17;4.61;107.12
61641;HTU21D;62201;49.966;8.342;2023-04-15T04:47:42;4.67;106.63
61641;HTU21D;62201;49.966;8.342;2023-04-15T04:50:08;4.66;105.95
61641;HTU21D;62201;49.966;8.342;2023-04-15T04:52:34;4.67;106.03
61641;HTU21D;62201;49.966;8.342;2023-04-15T04:54:59;4.72;105.72
61641;HTU21D;62201;49.966;8.342;2023-04-15T04:57:25;4.73;105.27
61641;HTU21D;62201;49.966;8.342;2023-04-15T04:59:50;4.73;105.16
61641;HTU21D;62201;49.966;8.342;2023-04-15T05:02:16;4.75;104.86
61641;HTU21D;62201;49.966;8.342;2023-04-15T05:04:41;4.76;104.57
61641;HTU21D;62201;49.966;8.342;2023-04-15T05:07:06;4.74;104.17
61641;HTU21D;62201;49.966;8.342;2023-04-15T05:09:32;4.77;104.07
61641;HTU21D;62201;49.966;8.342;2023-04-15T05:12:00;4.77;104.16
61641;HTU21D;62201;49.966;8.342;2023-04-15T05:14:25;4.78;103.85
61641;HTU21D;62201;49.966;8.342;2023-04-15T05:16:51;4.80;103.67
61641;HTU21D;62201;49.966;8.342;2023-04-15T05:19:16;4.78;103.73
61641;HTU21D;62201;49.966;8.342;2023-04-15T05:21:42;4.78;103.83
61641;HTU21D;62201;49.966;8.342;2023-04-15T05:24:07;4.79;103.68
61641;HTU21D;62201;49.966;8.342;2023-04-15T05:26:32;4.81;104.39
61641;HTU21D;62201;49.966;8.342;2023-04-15T05:28:58;4.81;103.90
61641;HTU21D;62201;49.966;8.342;2023-04-15T05:31:23;4.78;103.82
61641;HTU21D;62201;49.966;8.342;2023-04-15T05:33:49;4.79;103.62
61641;HTU21D;62201;49.966;8.342;2023-04-15T05:36:14;4.79;103.27
61641;HTU21D;62201;49.966;8.342;2023-04-15T05:38:39;4.80;103.03
61641;HTU21D;62201;49.966;8.342;2023-04-15T05:41:05;4.82;102.76
61641;HTU21D;62201;49.966;8.342;2023-04-15T05:43:30;4.82;102.73
61641;HTU21D;62201;49.966;8.342;2023-04-15T05:45:56;4.86;103.01
61641;HTU21D;62201;49.966;8.342;2023-04-15T05:48:21;4.89;102.48
61641;HTU21D;62201;49.966;8.342;2023-04-15T05:50:47;4.92;102.09
61641;HTU21D;62201;49.966;8.342;2023-04-15T05:53:12;4.93;101.38
61641;HTU21D;62201;49.966;8.342;2023-04-15T05:55:37;4.97;101.06
61641;HTU21D;62201;49.966;8.342;2023-04-15T05:58:03;5.02;100.47
61641;HTU21D;62201;49.966;8.342;2023-04-15T06:00:28;5.06;99.58
61641;HTU21D;62201;49.966;8.342;2023-04-15T06:02:55;5.09;99.34
61641;HTU21D;62201;49.966;8.342;2023-04-15T06:05:21;5.11;98.69
61641;HTU21D;62201;49.966;8.342;2023-04-15T06:07:46;5.16;98.36
61641;HTU21D;62201;49.966;8.342;2023-04-15T06:10:11;5.19;98.45
61641;HTU21D;62201;49.966;8.342;2023-04-15T06:12:37;5.26;97.40
61641;HTU21D;62201;49.966;8.342;2023-04-15T06:15:03;5.30;96.04
61641;HTU21D;62201;49.966;8.342;2023-04-15T06:17:28;5.35;96.55
61641;HTU21D;62201;49.966;8.342;2023-04-15T06:19:54;5.41;96.25
61641;HTU21D;62201;49.966;8.342;2023-04-15T06:22:23;5.51;95.82
61641;HTU21D;62201;49.966;8.342;2023-04-15T06:24:48;5.61;95.20
61641;HTU21D;62201;49.966;8.342;2023-04-15T06:27:17;5.72;94.01
61641;HTU21D;62201;49.966;8.342;2023-04-15T06:29:43;5.79;91.69
61641;HTU21D;62201;49.966;8.342;2023-04-15T06:32:08;5.86;92.09
61641;HTU21D;62201;49.966;8.342;2023-04-15T06:34:34;5.99;91.85
61641;HTU21D;62201;49.966;8.342;2023-04-15T06:36:59;6.10;90.57
61641;HTU21D;62201;49.966;8.342;2023-04-15T06:39:25;6.21;90.79
61641;HTU21D;62201;49.966;8.342;2023-04-15T06:41:51;6.29;89.92
61641;HTU21D;62201;49.966;8.342;2023-04-15T06:44:16;6.45;89.15
61641;HTU21D;62201;49.966;8.342;2023-04-15T06:46:43;6.58;89.31
61641;HTU21D;62201;49.966;8.342;2023-04-15T06:49:09;6.67;87.04
61641;HTU21D;62201;49.966;8.342;2023-04-15T06:51:36;6.76;87.55
61641;HTU21D;62201;49.966;8.342;2023-04-15T06:54:01;6.89;86.97
61641;HTU21D;62201;49.966;8.342;2023-04-15T06:56:30;7.05;85.51
61641;HTU21D;62201;49.966;8.342;2023-04-15T06:58:55;7.13;86.29
61641;HTU21D;62201;49.966;8.342;2023-04-15T07:01:21;7.30;83.84
61641;HTU21D;62201;49.966;8.342;2023-04-15T07:03:46;7.47;84.01
61641;HTU21D;62201;49.966;8.342;2023-04-15T07:06:12;7.74;81.45
61641;HTU21D;62201;49.966;8.342;2023-04-15T07:08:37;7.98;81.17
61641;HTU21D;62201;49.966;8.342;2023-04-15T07:11:04;8.06;79.13
61641;HTU21D;62201;49.966;8.342;2023-04-15T07:13:31;8.15;80.50
61641;HTU21D;62201;49.966;8.342;2023-04-15T07:15:57;8.20;78.82
61641;HTU21D;62201;49.966;8.342;2023-04-15T07:18:22;8.50;78.72
61641;HTU21D;62201;49.966;8.342;2023-04-15T07:20:48;8.57;76.44
61641;HTU21D;62201;49.966;8.342;2023-04-15T07:23:13;8.72;78.30
61641;HTU21D;62201;49.966;8.342;2023-04-15T07:25:38;8.88;76.76
61641;HTU21D;62201;49.966;8.342;2023-04-15T07:28:04;8.94;76.68
61641;HTU21D;62201;49.966;8.342;2023-04-15T07:30:29;9.05;76.15
61641;HTU21D;62201;49.966;8.342;2023-04-15T07:32:55;9.02;75.73
61641;HTU21D;62201;49.966;8.342;2023-04-15T07:35:20;9.14;74.85
61641;HTU21D;62201;49.966;8.342;2023-04-15T07:37:47;9.27;74.15
61641;HTU21D;62201;49.966;8.342;2023-04-15T07:40:12;9.26;72.78
61641;HTU21D;62201;49.966;8.342;2023-04-15T07:42:38;9.30;72.72
61641;HTU21D;62201;49.966;8.342;2023-04-15T07:45:04;9.48;72.39
61641;HTU21D;62201;49.966;8.342;2023-04-15T07:47:30;9.61;72.29
61641;HTU21D;62201;49.966;8.342;2023-04-15T07:49:56;9.64;71.44
61641;HTU21D;62201;49.966;8.342;2023-04-15T07:52:21;9.83;71.31
61641;HTU21D;62201;49.966;8.342;2023-04-15T07:54:47;10.08;70.07
61641;HTU21D;62201;49.966;8.342;2023-04-15T07:57:12;10.06;69.95
61641;HTU21D;62201;49.966;8.342;2023-04-15T07:59:38;10.25;68.78
61641;HTU21D;62201;49.966;8.342;2023-04-15T08:02:03;10.40;68.73
61641;HTU21D;62201;49.966;8.342;2023-04-15T08:04:29;10.49;68.23
61641;HTU21D;62201;49.966;8.342;2023-04-15T08:06:55;10.68;67.62
61641;HTU21D;62201;49.966;8.342;2023-04-15T08:09:20;10.81;67.04
61641;HTU21D;62201;49.966;8.342;2023-04-15T08:11:47;11.05;65.72
61641;HTU21D;62201;49.966;8.342;2023-04-15T08:14:13;11.46;65.22
61641;HTU21D;62201;49.966;8.342;2023-04-15T08:16:39;11.74;62.39
61641;HTU21D;62201;49.966;8.342;2023-04-15T08:19:04;11.89;64.04
61641;HTU21D;62201;49.966;8.342;2023-04-15T08:21:30;12.27;62.34
61641;HTU21D;62201;49.966;8.342;2023-04-15T08:23:55;12.27;61.95
61641;HTU21D;62201;49.966;8.342;2023-04-15T08:26:21;12.80;58.16
61641;HTU21D;62201;49.966;8.342;2023-04-15T08:28:47;13.43;59.25
61641;HTU21D;62201;49.966;8.342;2023-04-15T08:31:14;13.67;58.32
61641;HTU21D;62201;49.966;8.342;2023-04-15T08:33:40;14.53;56.81
61641;HTU21D;62201;49.966;8.342;2023-04-15T08:36:06;15.42;52.09
61641;HTU21D;62201;49.966;8.342;2023-04-15T08:38:32;15.84;50.39
61641;HTU21D;62201;49.966;8.342;2023-04-15T08:40:59;16.06;47.87
61641;HTU21D;62201;49.966;8.342;2023-04-15T08:43:34;16.43;48.70
61641;HTU21D;62201;49.966;8.342;2023-04-15T08:46:07;16.34;48.76
61641;HTU21D;62201;49.966;8.342;2023-04-15T08:48:37;16.78;48.34
61641;HTU21D;62201;49.966;8.342;2023-04-15T08:51:03;17.02;47.63
61641;HTU21D;62201;49.966;8.342;2023-04-15T08:53:29;16.79;45.86
61641;HTU21D;62201;49.966;8.342;2023-04-15T08:55:56;16.85;48.07
61641;HTU21D;62201;49.966;8.342;2023-04-15T08:58:23;16.74;47.21
61641;HTU21D;62201;49.966;8.342;2023-04-15T09:00:48;17.03;47.18
61641;HTU21D;62201;49.966;8.342;2023-04-15T09:03:15;17.07;46.56
61641;HTU21D;62201;49.966;8.342;2023-04-15T09:05:41;16.67;46.44
61641;HTU21D;62201;49.966;8.342;2023-04-15T09:08:07;16.51;47.26
61641;HTU21D;62201;49.966;8.342;2023-04-15T09:10:33;16.46;47.63
61641;HTU21D;62201;49.966;8.342;2023-04-15T09:12:58;16.21;47.67
61641;HTU21D;62201;49.966;8.342;2023-04-15T09:15:24;16.69;46.61
61641;HTU21D;62201;49.966;8.342;2023-04-15T09:17:56;17.05;45.31
61641;HTU21D;62201;49.966;8.342;2023-04-15T09:20:21;17.46;45.93
61641;HTU21D;62201;49.966;8.342;2023-04-15T09:22:48;17.95;44.19
61641;HTU21D;62201;49.966;8.342;2023-04-15T09:27:50;16.39;46.89
61641;HTU21D;62201;49.966;8.342;2023-04-15T09:30:16;16.08;47.60
61641;HTU21D;62201;49.966;8.342;2023-04-15T09:32:53;16.02;47.81
61641;HTU21D;62201;49.966;8.342;2023-04-15T09:35:20;15.89;48.12
61641;HTU21D;62201;49.966;8.342;2023-04-15T09:37:47;15.65;48.97
61641;HTU21D;62201;49.966;8.342;2023-04-15T09:40:12;15.24;49.28
61641;HTU21D;62201;49.966;8.342;2023-04-15T09:42:54;15.09;49.44
61641;HTU21D;62201;49.966;8.342;2023-04-15T09:45:20;15.18;49.59
61641;HTU21D;62201;49.966;8.342;2023-04-15T09:47:46;15.56;49.04
61641;HTU21D;62201;49.966;8.342;2023-04-15T09:50:11;15.53;48.97
61641;HTU21D;62201;49.966;8.342;2023-04-15T09:52:41;15.49;49.04
61641;HTU21D;62201;49.966;8.342;2023-04-15T09:55:07;15.55;49.22
61641;HTU21D;62201;49.966;8.342;2023-04-15T09:57:34;15.92;48.65
61641;HTU21D;62201;49.966;8.342;2023-04-15T10:00:02;16.43;47.76
61641;HTU21D;62201;49.966;8.342;2023-04-15T10:02:28;16.56;47.13
61641;HTU21D;62201;49.966;8.342;2023-04-15T10:04:55;16.06;47.71
61641;HTU21D;62201;49.966;8.342;2023-04-15T10:07:21;16.08;45.34
61641;HTU21D;62201;49.966;8.342;2023-04-15T10:09:50;16.12;45.87
61641;HTU21D;62201;49.966;8.342;2023-04-15T10:12:16;15.93;44.74
61641;HTU21D;62201;49.966;8.342;2023-04-15T10:14:42;15.81;45.23
61641;HTU21D;62201;49.966;8.342;2023-04-15T10:17:10;15.74;40.10
61641;HTU21D;62201;49.966;8.342;2023-04-15T10:19:36;15.85;39.39
61641;HTU21D;62201;49.966;8.342;2023-04-15T10:22:03;15.97;39.39
61641;HTU21D;62201;49.966;8.342;2023-04-15T10:24:32;15.57;37.79
61641;HTU21D;62201;49.966;8.342;2023-04-15T10:26:58;15.44;38.75
61641;HTU21D;62201;49.966;8.342;2023-04-15T10:29:24;15.66;38.53
61641;HTU21D;62201;49.966;8.342;2023-04-15T10:31:53;15.93;38.83
61641;HTU21D;62201;49.966;8.342;2023-04-15T10:34:19;15.78;36.11
61641;HTU21D;62201;49.966;8.342;2023-04-15T10:36:45;15.89;37.06
61641;HTU21D;62201;49.966;8.342;2023-04-15T10:39:41;15.81;34.64
61641;HTU21D;62201;49.966;8.342;2023-04-15T10:42:11;15.56;34.88
61641;HTU21D;62201;49.966;8.342;2023-04-15T10:44:41;15.60;35.37
61641;HTU21D;62201;49.966;8.342;2023-04-15T10:47:15;15.36;35.24
61641;HTU21D;62201;49.966;8.342;2023-04-15T10:49:45;15.44;34.51
61641;HTU21D;62201;49.966;8.342;2023-04-15T10:52:13;15.55;33.55
61641;HTU21D;62201;49.966;8.342;2023-04-15T10:54:39;15.48;33.94
61641;HTU21D;62201;49.966;8.342;2023-04-15T10:59:37;15.69;33.48
61641;HTU21D;62201;49.966;8.342;2023-04-15T11:02:05;15.60;34.01
61641;HTU21D;62201;49.966;8.342;2023-04-15T11:04:56;15.43;35.47
61641;HTU21D;62201;49.966;8.342;2023-04-15T11:13:02;14.94;37.32
61641;HTU21D;62201;49.966;8.342;2023-04-15T11:20:41;14.82;39.53
61641;HTU21D;62201;49.966;8.342;2023-04-15T11:23:07;15.19;39.29
61641;HTU21D;62201;49.966;8.342;2023-04-15T11:25:34;15.44;38.82
61641;HTU21D;62201;49.966;8.342;2023-04-15T11:28:01;15.56;38.63
61641;HTU21D;62201;49.966;8.342;2023-04-15T11:30:29;15.56;38.91
61641;HTU21D;62201;49.966;8.342;2023-04-15T11:33:02;15.69;38.32
61641;HTU21D;62201;49.966;8.342;2023-04-15T11:35:28;15.77;39.18
61641;HTU21D;62201;49.966;8.342;2023-04-15T11:37:54;15.83;38.46
61641;HTU21D;62201;49.966;8.342;2023-04-15T11:40:24;15.85;39.46
61641;HTU21D;62201;49.966;8.342;2023-04-15T11:43:08;16.10;38.64
61641;HTU21D;62201;49.966;8.342;2023-04-15T11:48:16;16.07;38.86
61641;HTU21D;62201;49.966;8.342;2023-04-15T11:50:41;15.90;38.85
61641;HTU21D;62201;49.966;8.342;2023-04-15T11:53:11;15.93;39.15
61641;HTU21D;62201;49.966;8.342;2023-04-15T11:55:55;15.84;37.84
61641;HTU21D;62201;49.966;8.342;2023-04-15T11:58:24;15.88;37.17
61641;HTU21D;62201;49.966;8.342;2023-04-15T12:00:51;15.84;37.75
61641;HTU21D;62201;49.966;8.342;2023-04-15T12:03:21;15.83;37.86
61641;HTU21D;62201;49.966;8.342;2023-04-15T12:13:57;15.37;41.39
61641;HTU21D;62201;49.966;8.342;2023-04-15T12:16:23;15.37;42.68
61641;HTU21D;62201;49.966;8.342;2023-04-15T12:18:53;15.24;43.23
61641;HTU21D;62201;49.966;8.342;2023-04-15T12:21:24;15.39;43.39
61641;HTU21D;62201;49.966;8.342;2023-04-15T12:23:54;15.37;43.47
61641;HTU21D;62201;49.966;8.342;2023-04-15T12:26:28;15.24;44.05
61641;HTU21D;62201;49.966;8.342;2023-04-15T12:28:55;15.30;44.05
61641;HTU21D;62201;49.966;8.342;2023-04-15T12:31:21;14.98;45.03
61641;HTU21D;62201;49.966;8.342;2023-04-15T12:33:48;14.78;46.05
61641;HTU21D;62201;49.966;8.342;2023-04-15T12:36:14;14.72;46.87
61641;HTU21D;62201;49.966;8.342;2023-04-15T12:39:02;14.92;47.19
61641;HTU21D;62201;49.966;8.342;2023-04-15T12:41:29;14.73;49.40
61641;HTU21D;62201;49.966;8.342;2023-04-15T12:43:54;14.63;50.85
61641;HTU21D;62201;49.966;8.342;2023-04-15T12:46:20;14.58;51.69
61641;HTU21D;62201;49.966;8.342;2023-04-15T12:48:46;14.68;51.80
61641;HTU21D;62201;49.966;8.342;2023-04-15T12:51:12;14.80;51.77
61641;HTU21D;62201;49.966;8.342;2023-04-15T12:53:37;14.88;51.56
61641;HTU21D;62201;49.966;8.342;2023-04-15T12:56:03;15.04;51.35
61641;HTU21D;62201;49.966;8.342;2023-04-15T12:58:28;15.32;50.22
61641;HTU21D;62201;49.966;8.342;2023-04-15T13:00:54;15.45;48.80
61641;HTU21D;62201;49.966;8.342;2023-04-15T13:03:19;15.70;48.82
61641;HTU21D;62201;49.966;8.342;2023-04-15T13:05:44;15.65;49.39
61641;HTU21D;62201;49.966;8.342;2023-04-15T13:08:10;15.72;49.13
61641;HTU21D;62201;49.966;8.342;2023-04-15T13:10:35;15.25;50.19
61641;HTU21D;62201;49.966;8.342;2023-04-15T13:13:02;15.07;50.57
61641;HTU21D;62201;49.966;8.342;2023-04-15T13:15:27;14.62;51.79
61641;HTU21D;62201;49.966;8.342;2023-04-15T13:17:53;14.37;52.62
61641;HTU21D;62201;49.966;8.342;2023-04-15T13:20:18;14.21;52.98
61641;HTU21D;62201;49.966;8.342;2023-04-15T13:22:44;14.11;53.73
61641;HTU21D;62201;49.966;8.342;2023-04-15T13:25:09;14.00;54.62
61641;HTU21D;62201;49.966;8.342;2023-04-15T13:27:35;13.91;55.74
61641;HTU21D;62201;49.966;8.342;2023-04-15T13:30:03;13.79;57.02
61641;HTU21D;62201;49.966;8.342;2023-04-15T13:32:28;13.70;57.68
61641;HTU21D;62201;49.966;8.342;2023-04-15T13:34:53;13.71;58.46
61641;HTU21D;62201;49.966;8.342;2023-04-15T13:37:25;13.61;60.00
61641;HTU21D;62201;49.966;8.342;2023-04-15T13:39:50;13.38;61.11
61641;HTU21D;62201;49.966;8.342;2023-04-15T13:42:16;13.18;62.41
61641;HTU21D;62201;49.966;8.342;2023-04-15T13:44:41;13.01;63.27
61641;HTU21D;62201;49.966;8.342;2023-04-15T13:47:07;12.92;63.24
61641;HTU21D;62201;49.966;8.342;2023-04-15T13:49:32;12.80;63.79
61641;HTU21D;62201;49.966;8.342;2023-04-15T13:51:57;12.72;64.88
61641;HTU21D;62201;49.966;8.342;2023-04-15T13:54:23;12.64;65.69
61641;HTU21D;62201;49.966;8.342;2023-04-15T13:56:48;12.59;66.13
61641;HTU21D;62201;49.966;8.342;2023-04-15T13:59:13;12.45;66.75
61641;HTU21D;62201;49.966;8.342;2023-04-15T14:01:39;12.43;67.76
61641;HTU21D;62201;49.966;8.342;2023-04-15T14:04:05;12.27;69.17
61641;HTU21D;62201;49.966;8.342;2023-04-15T14:06:30;12.15;71.51
61641;HTU21D;62201;49.966;8.342;2023-04-15T14:08:56;11.96;72.27
61641;HTU21D;62201;49.966;8.342;2023-04-15T14:11:21;11.86;74.10
61641;HTU21D;62201;49.966;8.342;2023-04-15T14:13:47;11.76;74.79
61641;HTU21D;62201;49.966;8.342;2023-04-15T14:16:12;11.74;76.15
61641;HTU21D;62201;49.966;8.342;2023-04-15T14:18:38;11.71;78.26
61641;HTU21D;62201;49.966;8.342;2023-04-15T14:21:04;11.57;78.21
61641;HTU21D;62201;49.966;8.342;2023-04-15T14:23:30;11.64;78.51
61641;HTU21D;62201;49.966;8.342;2023-04-15T14:25:55;11.75;77.82
61641;HTU21D;62201;49.966;8.342;2023-04-15T14:28:21;11.75;77.02
61641;HTU21D;62201;49.966;8.342;2023-04-15T14:30:46;11.71;75.47
61641;HTU21D;62201;49.966;8.342;2023-04-15T14:33:12;11.69;76.50
61641;HTU21D;62201;49.966;8.342;2023-04-15T14:35:37;11.71;77.66
61641;HTU21D;62201;49.966;8.342;2023-04-15T14:38:03;11.68;77.44
61641;HTU21D;62201;49.966;8.342;2023-04-15T14:40:30;11.66;77.40
61641;HTU21D;62201;49.966;8.342;2023-04-15T14:42:56;11.67;77.44
61641;HTU21D;62201;49.966;8.342;2023-04-15T14:45:21;11.61;76.55
61641;HTU21D;62201;49.966;8.342;2023-04-15T14:47:46;11.63;77.29
61641;HTU21D;62201;49.966;8.342;2023-04-15T14:50:12;11.75;77.85
61641;HTU21D;62201;49.966;8.342;2023-04-15T14:52:38;11.75;77.26
61641;HTU21D;62201;49.966;8.342;2023-04-15T14:55:12;11.68;78.19
61641;HTU21D;62201;49.966;8.342;2023-04-15T14:57:41;11.59;77.55
61641;HTU21D;62201;49.966;8.342;2023-04-15T15:00:08;11.48;76.76
61641;HTU21D;62201;49.966;8.342;2023-04-15T15:02:35;11.42;76.57
61641;HTU21D;62201;49.966;8.342;2023-04-15T15:05:01;11.32;76.82
61641;HTU21D;62201;49.966;8.342;2023-04-15T15:07:27;11.30;77.55
61641;HTU21D;62201;49.966;8.342;2023-04-15T15:09:53;11.30;78.29
61641;HTU21D;62201;49.966;8.342;2023-04-15T15:12:19;11.36;79.18
61641;HTU21D;62201;49.966;8.342;2023-04-15T15:14:46;11.34;78.47
61641;HTU21D;62201;49.966;8.342;2023-04-15T15:17:12;11.24;77.98
61641;HTU21D;62201;49.966;8.342;2023-04-15T15:19:37;11.18;78.86
61641;HTU21D;62201;49.966;8.342;2023-04-15T15:22:03;11.14;80.32
61641;HTU21D;62201;49.966;8.342;2023-04-15T15:24:28;11.10;79.10
61641;HTU21D;62201;49.966;8.342;2023-04-15T15:26:54;11.09;80.31
61641;HTU21D;62201;49.966;8.342;2023-04-15T15:29:19;11.01;79.85
61641;HTU21D;62201;49.966;8.342;2023-04-15T15:31:45;10.98;79.84
61641;HTU21D;62201;49.966;8.342;2023-04-15T15:34:10;10.98;82.19
61641;HTU21D;62201;49.966;8.342;2023-04-15T15:36:36;10.95;79.40
61641;HTU21D;62201;49.966;8.342;2023-04-15T15:39:01;10.88;78.89
61641;HTU21D;62201;49.966;8.342;2023-04-15T15:41:27;10.83;79.16